createdAt,value
2019-04-26T00:02:19.520Z,95560.92
2019-04-26T00:04:46.162Z,95561.67
2019-04-26T00:07:12.843Z,95565.47
2019-04-26T00:09:39.477Z,95563.83
2019-04-26T00:12:06.349Z,95562.84
2019-04-26T00:14:32.762Z,95565.63
2019-04-26T00:16:59.444Z,95559.55
2019-04-26T00:21:52.384Z,95559.57
2019-04-26T00:24:19.398Z,95558.56
2019-04-26T00:26:45.679Z,95560.09
2019-04-26T00:29:12.665Z,95559.22
2019-04-26T00:31:38.995Z,95551.52
2019-04-26T00:34:05.632Z,95548.84
2019-04-26T00:38:58.919Z,95547.73
2019-04-26T00:41:25.557Z,95550.64
2019-04-26T00:43:52.194Z,95551.14
2019-04-26T00:46:18.914Z,95550.55
2019-04-26T00:48:45.536Z,95541.58
2019-04-26T00:51:12.808Z,95542.34
2019-04-26T00:53:38.803Z,95539.93
2019-04-26T00:56:05.477Z,95536.55
2019-04-26T00:58:33.557Z,95538.92
2019-04-26T01:00:58.807Z,95539.45
2019-04-26T01:03:25.448Z,95542.98
2019-04-26T01:05:59.920Z,95541.50
2019-04-26T01:08:19.253Z,95538.44
2019-04-26T01:10:45.386Z,95536.69
2019-04-26T01:13:12.066Z,95536.03
2019-04-26T01:15:38.743Z,95532.64
2019-04-26T01:18:05.379Z,95529.26
2019-04-26T01:20:32.019Z,95531.55
2019-04-26T01:22:58.752Z,95539.48
2019-04-26T01:25:25.389Z,95539.25
2019-04-26T01:27:52.042Z,95538.62
2019-04-26T01:30:19.608Z,95538.77
2019-04-26T01:32:45.320Z,95536.47
2019-04-26T01:35:11.971Z,95529.02
2019-04-26T01:37:38.614Z,95534.58
2019-04-26T01:40:05.258Z,95530.05
2019-04-26T01:42:32.767Z,95530.32
2019-04-26T01:47:26.187Z,95519.58
2019-04-26T01:49:51.868Z,95525.15
2019-04-26T01:52:18.538Z,95518.48
2019-04-26T01:54:45.175Z,95517.83
2019-04-26T01:57:11.806Z,95513.78
2019-04-26T01:59:38.496Z,95515.05
2019-04-26T02:02:05.187Z,95516.20
2019-04-26T02:04:32.028Z,95514.05
2019-04-26T02:06:58.470Z,95518.60
2019-04-26T02:09:25.119Z,95509.30
2019-04-26T02:11:51.806Z,95509.41
2019-04-26T02:14:18.456Z,95507.73
2019-04-26T02:16:45.090Z,95515.31
2019-04-26T02:19:11.727Z,95513.34
2019-04-26T02:21:38.405Z,95513.07
2019-04-26T02:24:05.050Z,95520.91
2019-04-26T02:26:32.560Z,95517.26
2019-04-26T02:28:58.329Z,95509.42
2019-04-26T02:31:26.634Z,95512.21
2019-04-26T02:33:51.669Z,95510.31
2019-04-26T02:36:18.344Z,95509.16
2019-04-26T02:38:46.017Z,95506.04
2019-04-26T02:41:12.654Z,95509.81
2019-04-26T02:43:39.297Z,95503.13
2019-04-26T02:46:05.936Z,95506.80
2019-04-26T02:48:34.287Z,95506.27
2019-04-26T02:50:59.261Z,95504.29
2019-04-26T02:53:28.817Z,95499.33
2019-04-26T02:55:52.612Z,95494.05
2019-04-26T02:58:19.287Z,95497.22
2019-04-26T03:00:45.920Z,95501.27
2019-04-26T03:03:12.556Z,95500.49
2019-04-26T03:05:39.642Z,95504.03
2019-04-26T03:08:05.924Z,95505.81
2019-04-26T03:10:34.718Z,95509.73
2019-04-26T03:12:59.195Z,95503.28
2019-04-26T03:17:52.476Z,95515.95
2019-04-26T03:20:19.171Z,95517.31
2019-04-26T03:22:45.804Z,95514.42
2019-04-26T03:25:12.440Z,95516.18
2019-04-26T03:27:41.252Z,95523.03
2019-04-26T03:30:19.938Z,95527.95
2019-04-26T03:32:33.892Z,95526.67
2019-04-26T03:34:59.007Z,95523.88
2019-04-26T03:39:52.332Z,95529.58
2019-04-26T03:42:18.969Z,95523.91
2019-04-26T03:44:45.604Z,95524.14
2019-04-26T03:47:12.263Z,95527.95
2019-04-26T03:49:39.886Z,95533.38
2019-04-26T03:52:05.603Z,95541.95
2019-04-26T03:54:32.247Z,95540.08
2019-04-26T03:56:58.897Z,95544.10
2019-04-26T04:01:52.205Z,95548.67
2019-04-26T04:04:18.840Z,95547.56
2019-04-26T04:06:58.117Z,95551.84
2019-04-26T04:09:12.129Z,95546.28
2019-04-26T04:11:40.824Z,95544.14
2019-04-26T04:14:05.711Z,95556.25
2019-04-26T04:16:32.123Z,95556.35
2019-04-26T04:18:58.805Z,95548.64
2019-04-26T04:21:25.478Z,95550.81
2019-04-26T04:23:52.125Z,95554.94
2019-04-26T04:26:18.795Z,95548.28
2019-04-26T04:28:46.499Z,95552.31
2019-04-26T04:31:12.069Z,95553.08
2019-04-26T04:33:40.695Z,95555.70
2019-04-26T04:36:05.391Z,95563.49
2019-04-26T04:38:32.026Z,95563.34
2019-04-26T04:40:58.669Z,95563.20
2019-04-26T04:43:25.399Z,95561.19
2019-04-26T04:45:53.114Z,95560.56
2019-04-26T04:48:18.631Z,95558.91
2019-04-26T04:50:46.918Z,95556.11
2019-04-26T04:53:11.946Z,95561.89
2019-04-26T04:55:38.644Z,95561.91
2019-04-26T04:58:05.293Z,95561.00
2019-04-26T05:00:31.970Z,95562.59
2019-04-26T05:02:58.607Z,95566.50
2019-04-26T05:05:25.245Z,95565.34
2019-04-26T05:07:51.998Z,95561.92
2019-04-26T05:10:19.897Z,95559.02
2019-04-26T05:12:45.809Z,95562.14
2019-04-26T05:15:11.930Z,95562.27
2019-04-26T05:17:38.616Z,95562.58
2019-04-26T05:20:05.249Z,95564.82
2019-04-26T05:22:31.934Z,95571.50
2019-04-26T05:24:58.568Z,95574.02
2019-04-26T05:29:52.077Z,95569.03
2019-04-26T05:32:18.541Z,95559.42
2019-04-26T05:34:46.238Z,95562.53
2019-04-26T05:37:11.876Z,95563.02
2019-04-26T05:39:38.565Z,95566.53
2019-04-26T05:42:05.207Z,95563.38
2019-04-26T05:44:31.845Z,95565.97
2019-04-26T05:46:58.486Z,95564.69
2019-04-26T05:49:25.125Z,95569.84
2019-04-26T05:51:51.986Z,95574.77
2019-04-26T05:54:18.481Z,95566.42
2019-04-26T05:56:45.118Z,95570.67
2019-04-26T05:59:11.757Z,95569.73
2019-04-26T06:04:05.172Z,95564.45
2019-04-26T06:06:31.846Z,95564.45
2019-04-26T06:08:59.555Z,95570.11
2019-04-26T06:11:25.145Z,95559.42
2019-04-26T06:13:52.310Z,95568.44
2019-04-26T06:16:18.472Z,95569.55
2019-04-26T06:18:45.164Z,95571.25
2019-04-26T06:21:11.802Z,95569.95
2019-04-26T06:26:05.101Z,95567.84
2019-04-26T06:28:31.734Z,95551.48
2019-04-26T06:30:59.372Z,95555.08
2019-04-26T06:33:25.027Z,95560.11
2019-04-26T06:35:51.736Z,95551.80
2019-04-26T06:38:18.339Z,95552.77
2019-04-26T06:40:44.972Z,95554.89
2019-04-26T06:43:11.610Z,95554.97
2019-04-26T06:48:06.015Z,95546.06
2019-04-26T06:50:31.658Z,95553.53
2019-04-26T06:52:58.298Z,95551.72
2019-04-26T06:55:27.700Z,95545.97
2019-04-26T06:57:54.343Z,95546.42
2019-04-26T07:00:20.982Z,95544.47
2019-04-26T07:02:47.620Z,95536.02
2019-04-26T07:05:15.246Z,95528.91
2019-04-26T07:07:40.902Z,95531.41
2019-04-26T07:10:07.578Z,95526.68
2019-04-26T07:12:34.264Z,95530.81
2019-04-26T07:15:02.203Z,95525.70
2019-04-26T07:17:27.618Z,95522.98
2019-04-26T07:22:20.887Z,95512.28
2019-04-26T07:24:47.531Z,95517.17
2019-04-26T07:27:14.189Z,95520.72
2019-04-26T07:29:40.824Z,95516.61
2019-04-26T07:32:07.524Z,95514.66
2019-04-26T07:34:34.159Z,95513.34
2019-04-26T07:37:01.793Z,95515.23
2019-04-26T07:39:27.516Z,95514.59
2019-04-26T07:41:54.151Z,95508.12
2019-04-26T07:44:20.787Z,95506.81
2019-04-26T07:46:47.423Z,95500.84
2019-04-26T07:49:14.055Z,95500.17
2019-04-26T07:51:40.698Z,95498.52
2019-04-26T07:54:07.338Z,95497.86
2019-04-26T07:56:34.020Z,95498.12
2019-04-26T07:59:04.113Z,95500.89
2019-04-26T08:01:27.295Z,95492.14
2019-04-26T08:03:53.930Z,95495.02
2019-04-26T08:06:20.567Z,95499.20
2019-04-26T08:08:47.204Z,95497.17
2019-04-26T08:11:14.922Z,95503.63
2019-04-26T08:13:40.510Z,95496.80
2019-04-26T08:16:08.531Z,95497.98
2019-04-26T08:18:33.822Z,95500.72
2019-04-26T08:21:02.550Z,95497.41
2019-04-26T08:23:39.539Z,95503.13
2019-04-26T08:25:53.778Z,95497.30
2019-04-26T08:28:20.447Z,95497.72
2019-04-26T08:30:47.084Z,95490.51
2019-04-26T08:33:14.688Z,95499.96
2019-04-26T08:35:40.362Z,95495.90
2019-04-26T08:38:15.022Z,95495.75
2019-04-26T08:40:33.755Z,95489.37
2019-04-26T08:43:00.437Z,95494.52
2019-04-26T08:45:27.075Z,95491.84
2019-04-26T08:47:53.713Z,95482.34
2019-04-26T08:50:20.359Z,95487.42
2019-04-26T08:52:47.009Z,95477.72
2019-04-26T08:55:13.660Z,95478.01
2019-04-26T08:57:40.294Z,95480.63
2019-04-26T09:00:06.939Z,95474.30
2019-04-26T09:02:33.586Z,95472.69
2019-04-26T09:05:00.230Z,95470.86
2019-04-26T09:07:26.880Z,95468.50
2019-04-26T09:12:23.406Z,95455.77
2019-04-26T09:14:46.786Z,95453.09
2019-04-26T09:17:13.453Z,95441.81
2019-04-26T09:19:40.089Z,95449.72
2019-04-26T09:22:12.796Z,95445.04
2019-04-26T09:24:33.390Z,95436.99
2019-04-26T09:27:00.023Z,95431.14
2019-04-26T09:29:30.306Z,95423.78
2019-04-26T09:34:19.957Z,95418.47
2019-04-26T09:36:46.706Z,95422.77
2019-04-26T09:39:13.343Z,95416.44
2019-04-26T09:41:39.982Z,95418.84
2019-04-26T09:44:06.626Z,95411.23
2019-04-26T09:46:33.259Z,95411.12
2019-04-26T09:49:03.093Z,95397.59
2019-04-26T09:51:26.538Z,95397.08
2019-04-26T09:53:53.176Z,95392.28
2019-04-26T09:56:19.811Z,95387.77
2019-04-26T09:58:46.458Z,95390.73
2019-04-26T10:01:13.148Z,95381.34
2019-04-26T10:03:39.775Z,95376.52
2019-04-26T10:06:08.207Z,95373.35
2019-04-26T10:08:33.064Z,95372.77
2019-04-26T10:10:59.694Z,95370.88
2019-04-26T10:13:26.349Z,95358.70
2019-04-26T10:15:52.992Z,95363.20
2019-04-26T10:18:20.345Z,95358.44
2019-04-26T10:20:46.277Z,95349.80
2019-04-26T10:23:12.919Z,95350.32
2019-04-26T10:25:39.567Z,95348.77
2019-04-26T10:28:06.203Z,95344.27
2019-04-26T10:30:32.889Z,95339.64
2019-04-26T10:33:02.299Z,95340.86
2019-04-26T10:35:26.173Z,95333.56
2019-04-26T10:37:52.860Z,95332.28
2019-04-26T10:42:46.119Z,95329.42
2019-04-26T10:45:14.795Z,95321.48
2019-04-26T10:47:39.936Z,95325.22
2019-04-26T10:50:06.033Z,95320.95
2019-04-26T10:52:32.691Z,95312.90
2019-04-26T10:54:59.329Z,95320.66
2019-04-26T10:57:25.969Z,95314.70
2019-04-26T10:59:52.603Z,95303.87
2019-04-26T11:04:45.893Z,95304.82
2019-04-26T11:07:12.525Z,95309.32
2019-04-26T11:09:39.219Z,95297.72
2019-04-26T11:12:05.806Z,95295.05
2019-04-26T11:14:32.439Z,95300.61
2019-04-26T11:16:59.124Z,95292.04
2019-04-26T11:19:25.761Z,95289.78
2019-04-26T11:21:54.894Z,95288.61
2019-04-26T11:26:45.699Z,95284.63
2019-04-26T11:29:12.335Z,95282.01
2019-04-26T11:31:38.976Z,95287.72
2019-04-26T11:34:05.840Z,95285.17
2019-04-26T11:36:32.254Z,95285.69
2019-04-26T11:39:01.367Z,95288.79
2019-04-26T11:41:25.554Z,95288.30
2019-04-26T11:43:52.855Z,95282.47
2019-04-26T11:46:21.799Z,95280.94
2019-04-26T11:48:45.497Z,95278.34
2019-04-26T11:51:12.141Z,95277.17
2019-04-26T11:53:40.481Z,95265.17
2019-04-26T11:56:05.799Z,95261.02
2019-04-26T11:58:32.070Z,95259.25
2019-04-26T12:03:25.944Z,95261.33
2019-04-26T12:05:52.019Z,95252.72
2019-04-26T12:08:18.654Z,95254.53
2019-04-26T12:10:45.938Z,95248.00
2019-04-26T12:13:11.973Z,95241.88
2019-04-26T12:15:38.946Z,95239.73
2019-04-26T12:18:05.604Z,95246.19
2019-04-26T12:20:31.931Z,95239.70
2019-04-26T12:22:58.586Z,95235.58
2019-04-26T12:25:25.237Z,95229.34
2019-04-26T12:27:53.591Z,95229.00
2019-04-26T12:30:18.612Z,95228.44
2019-04-26T12:32:46.311Z,95224.47
2019-04-26T12:35:11.895Z,95221.41
2019-04-26T12:37:38.532Z,95220.58
2019-04-26T12:40:07.288Z,95212.00
2019-04-26T12:42:31.807Z,95211.44
2019-04-26T12:44:58.446Z,95205.50
2019-04-26T12:47:25.103Z,95192.28
2019-04-26T12:49:54.460Z,95193.87
2019-04-26T12:52:21.649Z,95195.48
2019-04-26T12:54:45.026Z,95191.51
2019-04-26T12:57:11.669Z,95190.11
2019-04-26T12:59:44.258Z,95186.16
2019-04-26T13:02:06.143Z,95185.70
2019-04-26T13:04:36.279Z,95185.92
2019-04-26T13:06:58.263Z,95187.84
2019-04-26T13:09:26.575Z,95187.09
2019-04-26T13:11:52.773Z,95182.51
2019-04-26T13:14:18.261Z,95180.35
2019-04-26T13:16:44.909Z,95180.84
2019-04-26T13:19:11.549Z,95179.81
2019-04-26T13:21:38.902Z,95173.58
2019-04-26T13:24:06.233Z,95176.53
2019-04-26T13:26:34.913Z,95168.15
2019-04-26T13:28:58.826Z,95170.38
2019-04-26T13:31:31.480Z,95163.02
2019-04-26T13:33:51.408Z,95161.80
2019-04-26T13:36:18.044Z,95160.33
2019-04-26T13:38:45.163Z,95153.98
2019-04-26T13:41:11.330Z,95157.69
2019-04-26T13:43:37.962Z,95163.58
2019-04-26T13:46:04.605Z,95157.98
2019-04-26T13:48:31.236Z,95159.38
2019-04-26T13:51:01.409Z,95157.85
2019-04-26T13:53:25.829Z,95142.83
2019-04-26T13:55:51.161Z,95142.15
2019-04-26T13:58:20.975Z,95144.52
2019-04-26T14:00:44.983Z,95141.91
2019-04-26T14:03:11.090Z,95135.86
2019-04-26T14:05:37.762Z,95141.23
2019-04-26T14:08:04.461Z,95143.09
2019-04-26T14:10:31.110Z,95143.50
2019-04-26T14:12:57.750Z,95143.12
2019-04-26T14:15:24.416Z,95135.27
2019-04-26T14:17:51.100Z,95132.93
2019-04-26T14:20:19.265Z,95133.20
2019-04-26T14:22:44.347Z,95135.61
2019-04-26T14:25:11.304Z,95135.16
2019-04-26T14:27:37.671Z,95134.86
2019-04-26T14:30:06.505Z,95138.41
2019-04-26T14:32:30.967Z,95137.73
2019-04-26T14:34:57.613Z,95136.98
2019-04-26T14:37:24.250Z,95130.91
2019-04-26T14:39:51.382Z,95136.23
2019-04-26T14:42:17.535Z,95137.36
2019-04-26T14:44:49.677Z,95138.76
2019-04-26T14:47:14.723Z,95136.10
2019-04-26T14:49:39.154Z,95134.19
2019-04-26T14:52:04.114Z,95134.34
2019-04-26T14:56:59.321Z,95128.00
2019-04-26T14:59:24.093Z,95124.83
2019-04-26T15:01:52.197Z,95125.10
2019-04-26T15:04:17.359Z,95116.26
2019-04-26T15:06:44.045Z,95109.23
2019-04-26T15:09:17.966Z,95115.50
2019-04-26T15:11:37.322Z,95113.81
2019-04-26T15:14:03.956Z,95113.89
2019-04-26T15:16:30.622Z,95118.48
2019-04-26T15:18:57.244Z,95118.95
2019-04-26T15:21:27.368Z,95111.84
2019-04-26T15:23:50.567Z,95118.84
2019-04-26T15:26:18.410Z,95113.70
2019-04-26T15:28:50.066Z,95115.48
2019-04-26T15:31:10.503Z,95114.08
2019-04-26T15:33:37.178Z,95117.41
2019-04-26T15:36:06.469Z,95117.36
2019-04-26T15:38:34.881Z,95118.13
2019-04-26T15:40:57.102Z,95123.22
2019-04-26T15:43:24.040Z,95115.91
2019-04-26T15:45:50.385Z,95114.59
2019-04-26T15:48:20.189Z,95111.23
2019-04-26T15:50:50.232Z,95108.70
2019-04-26T15:53:12.747Z,95113.88
2019-04-26T15:55:39.917Z,95113.34
2019-04-26T15:58:08.175Z,95106.63
2019-04-26T16:00:32.725Z,95105.58
2019-04-26T16:02:58.573Z,95109.95
2019-04-26T16:05:29.134Z,95103.47
2019-04-26T16:07:50.205Z,95098.53
2019-04-26T16:10:16.840Z,95095.62
2019-04-26T16:12:43.696Z,95096.30
2019-04-26T16:15:11.447Z,95098.47
2019-04-26T16:17:40.132Z,95093.73
2019-04-26T16:20:03.644Z,95096.61
2019-04-26T16:22:31.677Z,95097.90
2019-04-26T16:24:58.259Z,95096.12
2019-04-26T16:27:24.671Z,95093.19
2019-04-26T16:29:50.888Z,95091.34
2019-04-26T16:32:21.644Z,95095.91
2019-04-26T16:34:47.610Z,95093.27
2019-04-26T16:37:10.181Z,95090.66
2019-04-26T16:39:39.125Z,95090.92
2019-04-26T16:42:05.025Z,95089.77
2019-04-26T16:44:31.827Z,95091.61
2019-04-26T16:47:01.284Z,95087.88
2019-04-26T16:49:23.530Z,95090.38
2019-04-26T16:51:54.549Z,95084.48
2019-04-26T16:54:21.884Z,95092.27
2019-04-26T16:56:43.987Z,95087.70
2019-04-26T17:01:38.162Z,95095.89
2019-04-26T17:04:04.679Z,95100.77
2019-04-26T17:06:29.987Z,95095.85
2019-04-26T17:09:01.505Z,95111.74
2019-04-26T17:11:23.269Z,95115.45
2019-04-26T17:13:54.485Z,95109.78
2019-04-26T17:18:43.219Z,95110.00
2019-04-26T17:21:09.898Z,95115.21
2019-04-26T17:23:36.549Z,95114.53
2019-04-26T17:26:04.004Z,95114.69
2019-04-26T17:28:29.817Z,95108.80
2019-04-26T17:30:56.468Z,95113.81
2019-04-26T17:33:28.070Z,95114.72
2019-04-26T17:35:49.812Z,95120.30
2019-04-26T17:38:16.488Z,95120.86
2019-04-26T17:40:43.150Z,95128.22
2019-04-26T17:43:10.926Z,95128.26
2019-04-26T17:45:40.313Z,95130.21
2019-04-26T17:48:06.682Z,95134.02
2019-04-26T17:50:30.937Z,95135.95
2019-04-26T17:52:56.489Z,95139.30
2019-04-26T17:55:23.192Z,95144.88
2019-04-26T17:57:50.665Z,95146.61
2019-04-26T18:00:22.250Z,95149.28
2019-04-26T18:02:47.928Z,95150.95
2019-04-26T18:05:10.857Z,95150.86
2019-04-26T18:07:41.411Z,95158.86
2019-04-26T18:10:04.882Z,95168.52
2019-04-26T18:12:32.615Z,95167.01
2019-04-26T18:14:56.343Z,95168.36
2019-04-26T18:17:23.179Z,95172.77
2019-04-26T18:19:49.659Z,95167.52
2019-04-26T18:22:16.294Z,95171.48
2019-04-26T18:24:43.185Z,95176.04
2019-04-26T18:27:09.582Z,95177.81
2019-04-26T18:29:36.231Z,95190.06
2019-04-26T18:32:03.652Z,95183.28
2019-04-26T18:34:30.560Z,95189.80
2019-04-26T18:36:57.395Z,95191.27
2019-04-26T18:39:26.278Z,95192.33
2019-04-26T18:41:49.520Z,95195.27
2019-04-26T18:44:16.159Z,95199.63
2019-04-26T18:46:46.879Z,95199.58
2019-04-26T18:49:11.455Z,95205.55
2019-04-26T18:51:36.124Z,95202.62
2019-04-26T18:54:04.855Z,95202.31
2019-04-26T18:56:29.444Z,95203.27
2019-04-26T18:58:56.078Z,95208.47
2019-04-26T19:01:22.720Z,95203.84
2019-04-26T19:03:49.587Z,95202.20
2019-04-26T19:06:28.687Z,95210.39
2019-04-26T19:08:47.650Z,95205.14
2019-04-26T19:11:11.735Z,95211.69
2019-04-26T19:13:36.805Z,95214.49
2019-04-26T19:16:03.658Z,95209.73
2019-04-26T19:20:55.883Z,95219.03
2019-04-26T19:23:28.766Z,95211.89
2019-04-26T19:25:49.156Z,95216.57
2019-04-26T19:30:49.051Z,95214.03
2019-04-26T19:33:11.739Z,95207.39
2019-04-26T19:35:39.327Z,95213.92
2019-04-26T19:38:03.231Z,95207.50
2019-04-26T19:40:29.054Z,95210.06
2019-04-26T19:42:57.454Z,95211.41
2019-04-26T19:45:22.519Z,95211.02
2019-04-26T19:47:49.043Z,95213.67
2019-04-26T19:50:17.014Z,95207.22
2019-04-26T19:52:42.953Z,95204.98
2019-04-26T19:55:11.441Z,95203.20
2019-04-26T19:57:39.241Z,95205.77
2019-04-26T20:00:03.745Z,95202.52
2019-04-26T20:02:35.786Z,95201.77
2019-04-26T20:04:55.531Z,95198.97
2019-04-26T20:07:24.243Z,95199.18
2019-04-26T20:09:48.880Z,95203.68
2019-04-26T20:14:49.209Z,95194.73
2019-04-26T20:17:13.205Z,95201.02
2019-04-26T20:19:37.513Z,95195.26
2019-04-26T20:24:28.788Z,95187.18
2019-04-26T20:26:55.467Z,95188.58
2019-04-26T20:29:23.207Z,95191.89
2019-04-26T20:31:48.754Z,95181.53
2019-04-26T20:34:18.401Z,95196.92
2019-04-26T20:36:47.665Z,95197.35
2019-04-26T20:39:12.548Z,95196.54
2019-04-26T20:41:38.413Z,95196.66
2019-04-26T20:44:09.851Z,95195.81
2019-04-26T20:46:34.369Z,95202.13
2019-04-26T20:49:05.091Z,95193.75
2019-04-26T20:51:27.943Z,95191.78
2019-04-26T20:53:54.583Z,95196.22
2019-04-26T20:56:22.503Z,95191.14
2019-04-26T20:58:47.899Z,95193.81
2019-04-26T21:01:14.544Z,95198.05
2019-04-26T21:06:07.863Z,95198.95
2019-04-26T21:08:34.495Z,95196.87
2019-04-26T21:11:01.734Z,95199.72
2019-04-26T21:13:30.770Z,95193.76
2019-04-26T21:15:58.308Z,95200.15
2019-04-26T21:18:21.153Z,95202.94
2019-04-26T21:20:47.775Z,95204.13
2019-04-26T21:23:15.390Z,95201.48
2019-04-26T21:28:08.053Z,95200.53
2019-04-26T21:30:34.805Z,95199.83
2019-04-26T21:33:02.875Z,95197.88
2019-04-26T21:35:28.403Z,95198.27
2019-04-26T21:37:56.489Z,95202.50
2019-04-26T21:40:24.683Z,95201.98
2019-04-26T21:42:47.696Z,95196.75
2019-04-26T21:45:14.343Z,95202.50
2019-04-26T21:50:07.675Z,95202.81
2019-04-26T21:52:34.391Z,95197.04
2019-04-26T21:55:00.955Z,95195.15
2019-04-26T21:57:31.761Z,95195.91
2019-04-26T21:59:56.773Z,95197.04
2019-04-26T22:02:25.428Z,95195.53
2019-04-26T22:04:50.077Z,95203.14
2019-04-26T22:07:16.736Z,95193.20
2019-04-26T22:12:10.042Z,95200.88
2019-04-26T22:14:36.679Z,95204.15
2019-04-26T22:17:05.387Z,95197.27
2019-04-26T22:19:32.477Z,95193.61
2019-04-26T22:21:59.485Z,95197.38
2019-04-26T22:24:23.415Z,95199.85
2019-04-26T22:26:49.876Z,95193.75
2019-04-26T22:29:16.883Z,95190.44
2019-04-26T22:31:43.180Z,95191.95
2019-04-26T22:34:09.843Z,95187.33
2019-04-26T22:36:36.518Z,95186.08
2019-04-26T22:39:04.631Z,95184.55
2019-04-26T22:41:29.817Z,95187.80
2019-04-26T22:43:56.451Z,95179.75
2019-04-26T22:46:26.998Z,95176.32
2019-04-26T22:48:54.715Z,95178.33
2019-04-26T22:51:16.440Z,95177.98
2019-04-26T22:53:43.410Z,95176.81
2019-04-26T22:56:09.721Z,95171.88
2019-04-26T22:58:36.376Z,95172.95
2019-04-26T23:01:06.149Z,95168.70
2019-04-26T23:03:29.667Z,95175.86
2019-04-26T23:05:58.402Z,95172.62
2019-04-26T23:08:23.627Z,95167.08
2019-04-26T23:10:49.597Z,95168.45
2019-04-26T23:13:16.251Z,95160.34
2019-04-26T23:15:43.351Z,95163.45
2019-04-26T23:18:09.544Z,95162.38
2019-04-26T23:20:37.882Z,95160.66
2019-04-26T23:23:06.852Z,95160.72
2019-04-26T23:25:31.209Z,95153.06
2019-04-26T23:27:58.291Z,95142.44
2019-04-26T23:30:23.078Z,95145.48
2019-04-26T23:32:52.229Z,95141.30
2019-04-26T23:35:16.151Z,95145.36
2019-04-26T23:37:42.784Z,95140.08
2019-04-26T23:40:09.470Z,95139.15
2019-04-26T23:42:36.163Z,95134.77
2019-04-26T23:45:03.087Z,95130.47
2019-04-26T23:49:57.119Z,95125.97
2019-04-26T23:52:23.017Z,95122.28
2019-04-26T23:54:49.354Z,95119.81
2019-04-26T23:57:15.983Z,95119.06
2019-04-26T23:59:43.099Z,95116.04
